Time;durP1;ratioP1;P1;durP2;ratioP2;P2;SDS_P1;SDS_P2;PMS_P1;PMS_P2;Temp;Humidity;BMP_temperature;BMP_pressure;BME280_temperature;BME280_humidity;BME280_pressure;Samples;Min_cycle;Max_cycle;Signal;HPM_P1;HPM_P2
2023/01/31 00:01:18;;;;;;;12.37;6.57;;;4.90;99.90;;;;;;5085216;28;20510;-63
2023/01/31 00:03:44;;;;;;;14.80;6.23;;;4.90;99.90;;;;;;5062970;28;20599;-63
2023/01/31 00:06:09;;;;;;;9.17;7.03;;;4.90;99.90;;;;;;5073019;28;20174;-63
2023/01/31 00:08:35;;;;;;;7.30;6.03;;;4.90;99.90;;;;;;5064127;28;20190;-62
2023/01/31 00:11:00;;;;;;;6.67;5.70;;;5.00;99.90;;;;;;5052676;28;20279;-64
2023/01/31 00:13:26;;;;;;;6.57;6.07;;;5.00;99.90;;;;;;5058699;28;20261;-63
2023/01/31 00:15:55;;;;;;;7.17;5.97;;;5.00;99.90;;;;;;5072735;28;20876;-63
2023/01/31 00:18:21;;;;;;;9.73;6.53;;;5.00;99.90;;;;;;5066716;28;20269;-63
2023/01/31 00:20:47;;;;;;;9.80;6.20;;;5.00;99.90;;;;;;5052840;28;20605;-62
2023/01/31 00:23:12;;;;;;;7.13;6.00;;;5.00;99.90;;;;;;5072692;28;20178;-63
2023/01/31 00:25:38;;;;;;;9.00;6.17;;;5.00;99.90;;;;;;5072509;28;20182;-63
2023/01/31 00:28:04;;;;;;;6.50;5.57;;;5.00;99.90;;;;;;5072111;28;20288;-65
2023/01/31 00:30:29;;;;;;;7.27;6.67;;;5.00;99.90;;;;;;5072186;28;20220;-64
2023/01/31 00:32:55;;;;;;;8.73;6.70;;;5.00;99.90;;;;;;5054822;28;20232;-63
2023/01/31 00:35:20;;;;;;;6.40;5.80;;;5.00;99.90;;;;;;5052337;28;20191;-63
2023/01/31 00:37:46;;;;;;;6.40;6.10;;;4.90;99.90;;;;;;5067484;28;20202;-63
2023/01/31 00:40:12;;;;;;;8.27;6.97;;;4.90;99.90;;;;;;5072262;28;20536;-63
2023/01/31 00:42:37;;;;;;;5.90;5.57;;;4.80;99.90;;;;;;5057900;28;20537;-63
2023/01/31 00:45:03;;;;;;;6.13;5.70;;;4.70;99.90;;;;;;5052369;28;20257;-63
2023/01/31 00:47:29;;;;;;;7.33;6.60;;;4.60;99.90;;;;;;5063866;28;20648;-63
2023/01/31 00:49:55;;;;;;;6.83;6.23;;;4.50;99.90;;;;;;5071801;28;20261;-63
2023/01/31 00:52:20;;;;;;;7.70;7.00;;;4.40;99.90;;;;;;5071908;28;20192;-63
2023/01/31 00:54:46;;;;;;;7.90;7.10;;;4.30;99.90;;;;;;5063609;28;20178;-63
2023/01/31 00:57:12;;;;;;;8.33;7.73;;;4.20;99.90;;;;;;5051901;28;20198;-63
2023/01/31 00:59:37;;;;;;;22.40;8.67;;;4.20;99.90;;;;;;5051996;28;20171;-63
2023/01/31 01:02:03;;;;;;;7.83;7.33;;;4.10;99.90;;;;;;5051900;28;20190;-63
2023/01/31 01:04:28;;;;;;;8.67;7.60;;;4.10;99.90;;;;;;5069246;28;20265;-63
2023/01/31 01:06:54;;;;;;;8.87;8.13;;;4.10;99.90;;;;;;5071669;28;20198;-63
2023/01/31 01:09:21;;;;;;;11.60;7.97;;;4.00;99.90;;;;;;5070876;28;20186;-63
2023/01/31 01:11:48;;;;;;;8.07;7.60;;;4.00;99.90;;;;;;5065857;28;20421;-64
2023/01/31 01:14:13;;;;;;;8.23;7.63;;;4.10;99.90;;;;;;5051786;28;20171;-64
2023/01/31 01:16:39;;;;;;;7.93;7.33;;;4.10;99.90;;;;;;5055081;28;20232;-63
2023/01/31 01:19:09;;;;;;;7.97;7.37;;;4.20;99.90;;;;;;5071711;28;20212;-63
2023/01/31 01:21:39;;;;;;;8.23;7.83;;;4.20;99.90;;;;;;5068537;28;20170;-63
2023/01/31 01:24:16;;;;;;;10.23;7.53;;;4.20;99.90;;;;;;5051677;28;20190;-63
2023/01/31 01:26:43;;;;;;;8.47;6.90;;;4.20;99.90;;;;;;5053260;28;20204;-63
2023/01/31 01:29:09;;;;;;;14.60;7.80;;;4.20;99.90;;;;;;5071336;28;20177;-63
2023/01/31 01:31:37;;;;;;;8.10;7.33;;;4.20;99.90;;;;;;5069548;28;20530;-63
2023/01/31 01:34:06;;;;;;;8.03;7.53;;;4.30;99.90;;;;;;5051509;28;20182;-63
2023/01/31 01:36:34;;;;;;;10.00;7.70;;;4.30;99.90;;;;;;5051685;28;20206;-63
2023/01/31 01:38:59;;;;;;;8.03;7.10;;;4.30;99.90;;;;;;5070967;28;20192;-63
2023/01/31 01:41:25;;;;;;;9.83;7.70;;;4.40;99.90;;;;;;5071083;28;20174;-63
2023/01/31 01:43:56;;;;;;;6.67;6.17;;;4.40;99.90;;;;;;5051845;28;20232;-63
2023/01/31 01:46:34;;;;;;;7.33;7.00;;;4.40;99.90;;;;;;5068670;28;20182;-63
2023/01/31 01:49:17;;;;;;;7.43;6.83;;;4.40;99.90;;;;;;5071478;28;20631;-63
2023/01/31 01:51:45;;;;;;;13.30;8.10;;;4.40;99.90;;;;;;5050883;28;20187;-63
2023/01/31 01:54:17;;;;;;;7.50;7.10;;;4.40;99.90;;;;;;5050821;28;20203;-63
2023/01/31 01:56:46;;;;;;;7.13;6.83;;;4.40;99.90;;;;;;5051258;28;20206;-64
2023/01/31 01:59:25;;;;;;;8.13;7.47;;;4.50;99.90;;;;;;5051076;28;20194;-63
2023/01/31 02:01:54;;;;;;;9.20;6.70;;;4.50;99.90;;;;;;5071033;28;20543;-63
2023/01/31 02:04:24;;;;;;;9.30;7.00;;;4.50;99.90;;;;;;5071263;28;20244;-64
2023/01/31 02:06:50;;;;;;;8.30;7.70;;;4.50;99.90;;;;;;5051713;28;20668;-64
2023/01/31 02:09:32;;;;;;;8.13;7.63;;;4.50;99.90;;;;;;5051469;28;20171;-63
2023/01/31 02:11:58;;;;;;;8.00;7.60;;;4.40;99.90;;;;;;5053640;28;20182;-63
2023/01/31 02:14:24;;;;;;;8.87;8.20;;;4.40;99.90;;;;;;5051857;28;20228;-63
2023/01/31 02:16:50;;;;;;;7.97;7.33;;;4.40;99.90;;;;;;5068510;28;20293;-63
2023/01/31 02:19:21;;;;;;;7.90;7.40;;;4.30;99.90;;;;;;5070926;28;20305;-63
2023/01/31 02:22:20;;;;;;;7.90;7.27;;;4.30;99.90;;;;;;5053894;28;20178;-63
2023/01/31 02:24:54;;;;;;;9.73;8.00;;;4.30;99.90;;;;;;5031995;28;20657;-62
2023/01/31 02:27:51;;;;;;;8.03;7.40;;;4.30;99.90;;;;;;5051146;28;20190;-63
2023/01/31 02:30:35;;;;;;;7.90;7.60;;;4.30;99.90;;;;;;5053343;28;20179;-63
2023/01/31 02:33:19;;;;;;;9.40;8.20;;;4.30;99.90;;;;;;5069637;28;20259;-63
2023/01/31 02:36:07;;;;;;;8.80;8.40;;;4.30;99.90;;;;;;5064584;28;20199;-63
2023/01/31 02:38:50;;;;;;;9.40;8.63;;;4.30;99.90;;;;;;5058595;28;20221;-63
2023/01/31 02:41:35;;;;;;;9.50;8.57;;;4.20;99.90;;;;;;5074312;28;20166;-63
2023/01/31 02:47:28;;;;;;;10.93;10.03;;;4.20;99.90;;;;;;5054426;28;20202;-63
2023/01/31 02:50:17;;;;;;;8.50;8.10;;;4.20;99.90;;;;;;5054110;28;20182;-63
2023/01/31 02:52:51;;;;;;;9.90;9.30;;;4.20;99.90;;;;;;5054206;28;20213;-63
2023/01/31 02:58:19;;;;;;;16.63;10.13;;;4.20;99.90;;;;;;5074157;28;20259;-63
2023/01/31 03:00:47;;;;;;;9.17;8.50;;;4.10;99.90;;;;;;5033958;28;20167;-63
2023/01/31 03:03:24;;;;;;;9.40;8.47;;;4.10;99.90;;;;;;5046321;28;20182;-63
2023/01/31 03:06:23;;;;;;;9.83;8.90;;;4.00;99.90;;;;;;5053953;28;20174;-63
2023/01/31 03:09:35;;;;;;;9.03;8.53;;;3.90;99.90;;;;;;5054635;28;20232;-63
2023/01/31 03:12:29;;;;;;;10.27;9.23;;;3.80;99.90;;;;;;5053576;28;20190;-63
2023/01/31 03:15:03;;;;;;;10.00;9.37;;;3.60;99.90;;;;;;5074092;28;20182;-63
2023/01/31 03:17:47;;;;;;;9.87;9.00;;;3.50;99.90;;;;;;5073157;28;20729;-63
2023/01/31 03:20:18;;;;;;;8.27;7.77;;;3.40;99.90;;;;;;5073720;28;20517;-63
2023/01/31 03:23:00;;;;;;;8.97;7.83;;;3.30;99.90;;;;;;5060739;28;20183;-63
2023/01/31 03:25:31;;;;;;;9.00;7.20;;;3.30;99.90;;;;;;5053883;28;20270;-63
2023/01/31 03:28:00;;;;;;;7.40;7.10;;;3.30;99.90;;;;;;5066760;28;20606;-63
2023/01/31 03:30:39;;;;;;;6.97;6.67;;;3.20;99.90;;;;;;5073395;28;20175;-62
2023/01/31 03:33:18;;;;;;;7.87;7.37;;;3.20;99.90;;;;;;5060376;28;20183;-63
2023/01/31 03:35:50;;;;;;;7.00;6.57;;;3.20;99.90;;;;;;5053375;28;20707;-63
2023/01/31 03:38:26;;;;;;;6.80;6.20;;;3.20;99.90;;;;;;5067916;28;20243;-63
2023/01/31 03:41:13;;;;;;;16.43;7.47;;;3.20;99.90;;;;;;5073207;28;20532;-63
2023/01/31 03:43:54;;;;;;;9.60;7.00;;;3.10;99.90;;;;;;5055975;28;20545;-63
2023/01/31 03:46:28;;;;;;;7.17;6.47;;;3.00;99.90;;;;;;5053444;28;20174;-64
2023/01/31 03:48:56;;;;;;;6.67;6.30;;;3.00;99.90;;;;;;5052290;28;20170;-64
2023/01/31 03:51:28;;;;;;;6.30;6.00;;;2.90;99.90;;;;;;5052667;28;20214;-64
2023/01/31 03:54:00;;;;;;;7.47;7.00;;;2.80;99.90;;;;;;5053717;28;20178;-63
2023/01/31 03:56:35;;;;;;;7.40;7.10;;;2.70;99.90;;;;;;5052888;28;20714;-63
2023/01/31 03:59:19;;;;;;;6.90;6.40;;;2.70;99.90;;;;;;5053136;28;20707;-63
2023/01/31 04:01:49;;;;;;;7.40;7.03;;;2.70;99.90;;;;;;5053011;28;20174;-63
2023/01/31 04:04:20;;;;;;;9.57;8.97;;;2.60;99.90;;;;;;5053093;28;20546;-63
2023/01/31 04:06:45;;;;;;;9.63;7.10;;;2.50;99.90;;;;;;5052908;28;20202;-63
2023/01/31 04:09:11;;;;;;;7.40;6.90;;;2.50;99.90;;;;;;5052748;28;20241;-63
2023/01/31 04:11:39;;;;;;;10.77;7.03;;;2.50;99.90;;;;;;5068981;28;20182;-63
2023/01/31 04:14:05;;;;;;;7.20;6.80;;;2.50;99.90;;;;;;5072903;28;20651;-64
2023/01/31 04:16:31;;;;;;;7.57;7.00;;;2.50;99.90;;;;;;5057381;28;20199;-63
2023/01/31 04:18:56;;;;;;;6.87;6.43;;;2.60;99.90;;;;;;5052751;28;20533;-64
2023/01/31 04:21:22;;;;;;;7.03;6.63;;;2.60;99.90;;;;;;5052791;28;20178;-63
2023/01/31 04:23:48;;;;;;;6.87;6.40;;;2.60;99.90;;;;;;5052490;28;20228;-63
2023/01/31 04:26:14;;;;;;;8.00;7.33;;;2.60;99.90;;;;;;5066875;28;20182;-64
2023/01/31 04:28:40;;;;;;;9.47;8.17;;;2.60;99.90;;;;;;5072421;28;20587;-63
2023/01/31 04:31:06;;;;;;;18.37;8.57;;;2.60;99.90;;;;;;5059310;28;20182;-63
2023/01/31 04:33:31;;;;;;;7.30;6.70;;;2.60;99.90;;;;;;5052328;28;20198;-62
2023/01/31 04:35:57;;;;;;;9.77;7.00;;;2.70;99.90;;;;;;5062919;28;20221;-63
2023/01/31 04:38:23;;;;;;;10.63;9.70;;;2.70;99.90;;;;;;5072288;28;20193;-63
2023/01/31 04:40:48;;;;;;;8.73;6.90;;;2.70;99.90;;;;;;5071914;28;20174;-63
2023/01/31 04:43:14;;;;;;;12.17;7.70;;;2.80;99.90;;;;;;5072309;28;20220;-63
2023/01/31 04:45:40;;;;;;;8.50;7.67;;;2.80;99.90;;;;;;5071518;28;20253;-63
2023/01/31 04:48:06;;;;;;;8.87;7.40;;;2.80;99.90;;;;;;5072168;28;20202;-63
2023/01/31 04:50:32;;;;;;;8.17;7.43;;;2.90;99.90;;;;;;5069483;28;20589;-63
2023/01/31 04:52:57;;;;;;;7.63;7.13;;;2.90;99.90;;;;;;5072143;28;20659;-63
2023/01/31 04:55:23;;;;;;;9.67;8.07;;;2.90;99.90;;;;;;5068389;28;20198;-63
2023/01/31 04:57:48;;;;;;;12.30;8.17;;;2.90;99.90;;;;;;5051692;28;20206;-63
2023/01/31 05:00:14;;;;;;;8.43;7.60;;;2.90;99.90;;;;;;5052676;28;20590;-63
2023/01/31 05:02:40;;;;;;;7.03;6.40;;;2.90;99.90;;;;;;5052184;28;20175;-63
2023/01/31 05:05:07;;;;;;;23.03;7.90;;;2.90;99.90;;;;;;5052485;28;20229;-63
2023/01/31 05:07:32;;;;;;;8.30;7.50;;;3.00;99.90;;;;;;5051768;28;20186;-63
2023/01/31 05:09:58;;;;;;;8.37;7.57;;;3.00;99.90;;;;;;5051443;28;20279;-62
2023/01/31 05:12:24;;;;;;;8.43;7.80;;;3.10;99.90;;;;;;5072089;28;20178;-63
2023/01/31 05:14:50;;;;;;;8.47;7.57;;;3.10;99.90;;;;;;5072726;28;20174;-63
2023/01/31 05:17:15;;;;;;;12.93;8.13;;;3.10;99.90;;;;;;5073908;28;20198;-60
2023/01/31 05:19:42;;;;;;;7.77;7.27;;;3.20;99.90;;;;;;5058966;28;20599;-63
2023/01/31 05:22:08;;;;;;;8.97;8.10;;;3.20;99.90;;;;;;5051733;28;20175;-61
2023/01/31 05:24:35;;;;;;;15.07;7.70;;;3.20;99.90;;;;;;5052715;28;20179;-61
2023/01/31 05:27:01;;;;;;;10.73;8.57;;;3.30;99.90;;;;;;5051600;28;20640;-61
2023/01/31 05:29:29;;;;;;;8.40;7.77;;;3.40;99.90;;;;;;5062967;28;20178;-63
2023/01/31 05:31:56;;;;;;;9.67;8.83;;;3.40;99.90;;;;;;5071329;28;20178;-64
2023/01/31 05:34:24;;;;;;;15.50;8.73;;;3.40;99.90;;;;;;5060823;28;20183;-62
2023/01/31 05:36:50;;;;;;;9.20;8.50;;;3.50;99.90;;;;;;5083209;28;20237;-61
2023/01/31 05:39:16;;;;;;;10.50;8.17;;;3.60;99.90;;;;;;5058807;28;20283;-64
2023/01/31 05:41:42;;;;;;;9.27;8.50;;;3.60;99.90;;;;;;5069758;28;20198;-64
2023/01/31 05:44:07;;;;;;;9.70;8.97;;;3.70;99.90;;;;;;5064265;28;20225;-63
2023/01/31 05:46:33;;;;;;;9.43;8.77;;;3.70;99.90;;;;;;5053706;28;20190;-64
2023/01/31 05:48:59;;;;;;;10.10;8.47;;;3.80;99.90;;;;;;5070309;28;20680;-64
2023/01/31 05:51:24;;;;;;;14.97;9.47;;;3.80;99.90;;;;;;5069954;28;20729;-64
2023/01/31 05:53:50;;;;;;;11.67;8.30;;;3.80;99.90;;;;;;5051180;28;20267;-63
2023/01/31 05:56:16;;;;;;;10.53;8.40;;;3.90;99.90;;;;;;5051205;28;20567;-63
2023/01/31 05:58:42;;;;;;;9.10;8.40;;;3.90;99.90;;;;;;5069899;28;20256;-64
2023/01/31 06:01:08;;;;;;;9.60;8.87;;;4.00;99.90;;;;;;5070972;28;20269;-63
2023/01/31 06:03:34;;;;;;;9.77;8.90;;;4.00;99.90;;;;;;5053657;28;20183;-63
2023/01/31 06:05:59;;;;;;;9.67;8.93;;;3.90;99.90;;;;;;5051051;28;20253;-64
2023/01/31 06:08:25;;;;;;;11.10;8.57;;;3.90;99.90;;;;;;5066190;28;20575;-63
2023/01/31 06:10:50;;;;;;;12.00;8.60;;;3.90;99.90;;;;;;5070914;28;20265;-63
2023/01/31 06:13:16;;;;;;;10.17;9.33;;;4.00;99.90;;;;;;5072630;28;20264;-63
2023/01/31 06:15:44;;;;;;;10.83;8.07;;;4.00;99.90;;;;;;5074839;28;20204;-64
2023/01/31 06:18:10;;;;;;;9.60;8.77;;;4.00;99.90;;;;;;5062857;28;20241;-63
2023/01/31 06:20:37;;;;;;;8.33;7.83;;;4.10;99.90;;;;;;5054600;28;20604;-63
2023/01/31 06:23:03;;;;;;;8.07;7.37;;;4.10;99.90;;;;;;5056025;28;20257;-63
2023/01/31 06:25:30;;;;;;;9.77;8.10;;;4.20;99.90;;;;;;5054851;28;20604;-63
2023/01/31 06:27:55;;;;;;;23.67;8.80;;;4.30;99.90;;;;;;5062680;28;20280;-62
2023/01/31 06:30:21;;;;;;;8.27;7.43;;;4.30;99.90;;;;;;5074427;28;20270;-63
2023/01/31 06:32:47;;;;;;;18.23;6.43;;;4.30;99.90;;;;;;5067816;28;20697;-63
2023/01/31 06:35:12;;;;;;;8.90;8.00;;;4.30;99.90;;;;;;5054541;28;20201;-63
2023/01/31 06:37:38;;;;;;;10.47;7.17;;;4.40;99.90;;;;;;5058698;28;20190;-63
2023/01/31 06:40:04;;;;;;;9.00;6.70;;;4.30;99.90;;;;;;5056193;28;20179;-64
2023/01/31 06:42:30;;;;;;;11.77;6.57;;;4.30;99.90;;;;;;5055600;28;20178;-64
2023/01/31 06:44:55;;;;;;;19.77;6.03;;;4.30;99.90;;;;;;5054901;28;20544;-64
2023/01/31 06:47:21;;;;;;;9.43;6.90;;;4.30;99.90;;;;;;5057968;28;20566;-63
2023/01/31 06:49:46;;;;;;;7.40;6.70;;;4.20;99.90;;;;;;5073861;28;20261;-63
2023/01/31 06:52:12;;;;;;;8.03;7.53;;;4.20;99.90;;;;;;5072145;28;20666;-63
2023/01/31 06:54:38;;;;;;;11.83;10.80;;;4.20;99.90;;;;;;5054217;28;20552;-62
2023/01/31 06:57:03;;;;;;;7.90;7.43;;;4.30;99.90;;;;;;5054184;28;20289;-63
2023/01/31 06:59:30;;;;;;;13.83;9.43;;;4.30;99.90;;;;;;5073917;28;20260;-63
2023/01/31 07:01:56;;;;;;;11.37;10.03;;;4.30;99.90;;;;;;5060383;28;20182;-63
2023/01/31 07:04:21;;;;;;;8.90;8.50;;;4.30;99.90;;;;;;5061322;28;20689;-64
2023/01/31 07:06:47;;;;;;;7.03;6.60;;;4.40;99.90;;;;;;5068543;28;20237;-62
2023/01/31 07:09:12;;;;;;;11.60;10.83;;;4.40;99.90;;;;;;5072345;28;20205;-62
2023/01/31 07:11:38;;;;;;;9.40;6.70;;;4.50;99.90;;;;;;5059423;28;20186;-63
2023/01/31 07:14:04;;;;;;;5.93;5.43;;;4.50;99.90;;;;;;5053712;28;20183;-63
2023/01/31 07:16:30;;;;;;;5.83;5.53;;;4.50;99.90;;;;;;5065782;28;20241;-64
2023/01/31 07:18:56;;;;;;;15.13;7.27;;;4.60;99.90;;;;;;5073374;28;20204;-64
2023/01/31 07:21:23;;;;;;;6.87;6.37;;;4.70;99.90;;;;;;5062780;28;20225;-61
2023/01/31 07:23:49;;;;;;;7.03;6.30;;;4.70;99.90;;;;;;5053658;28;20178;-64
2023/01/31 07:26:15;;;;;;;6.40;6.07;;;4.70;99.90;;;;;;5062314;28;20540;-65
2023/01/31 07:28:40;;;;;;;8.50;6.97;;;4.70;99.90;;;;;;5073643;28;20182;-63
2023/01/31 07:31:11;;;;;;;7.43;7.03;;;4.70;99.90;;;;;;5066175;28;20190;-64
2023/01/31 07:33:38;;;;;;;6.97;6.57;;;4.70;99.90;;;;;;5053423;28;20194;-64
2023/01/31 07:36:05;;;;;;;8.10;7.40;;;4.70;99.90;;;;;;5054252;28;20372;-63
2023/01/31 07:38:31;;;;;;;8.20;7.80;;;4.80;99.90;;;;;;5053256;28;20195;-63
2023/01/31 07:40:59;;;;;;;5.97;5.67;;;4.80;99.90;;;;;;5057226;28;20582;-64
2023/01/31 07:43:26;;;;;;;5.67;5.47;;;4.80;99.90;;;;;;5073528;28;20553;-62
2023/01/31 07:45:52;;;;;;;6.70;6.20;;;4.90;99.90;;;;;;5069917;28;20606;-62
2023/01/31 07:48:22;;;;;;;8.83;8.43;;;4.90;99.90;;;;;;5060198;28;20203;-63
2023/01/31 07:50:51;;;;;;;5.97;5.70;;;5.00;99.90;;;;;;5069572;28;20550;-63
2023/01/31 07:53:18;;;;;;;6.37;5.87;;;5.00;99.90;;;;;;5071876;28;20178;-64
2023/01/31 07:55:47;;;;;;;9.13;8.63;;;5.10;99.90;;;;;;5052711;28;20198;-62
2023/01/31 07:58:14;;;;;;;6.83;6.53;;;5.10;99.90;;;;;;5085498;28;20696;-64
2023/01/31 08:03:33;;;;;;;6.10;5.80;;;5.30;99.90;;;;;;5052086;28;20184;-64
2023/01/31 08:06:17;;;;;;;8.33;6.73;;;5.40;99.90;;;;;;5052911;28;20276;-62
2023/01/31 08:08:44;;;;;;;5.40;5.20;;;5.50;99.90;;;;;;5052818;28;20811;-64
2023/01/31 08:11:10;;;;;;;11.03;6.27;;;5.60;99.90;;;;;;5052588;28;20281;-63
2023/01/31 08:13:37;;;;;;;15.57;6.03;;;5.70;99.90;;;;;;5051235;28;20265;-64
2023/01/31 08:16:08;;;;;;;5.40;5.00;;;5.80;99.90;;;;;;5073422;28;20205;-64
2023/01/31 08:18:34;;;;;;;6.70;6.10;;;5.90;99.90;;;;;;5072982;28;20194;-63
2023/01/31 08:20:59;;;;;;;6.40;5.87;;;5.90;99.90;;;;;;5052268;28;20258;-64
2023/01/31 08:23:26;;;;;;;5.70;5.43;;;5.90;99.90;;;;;;5052465;28;20242;-63
2023/01/31 08:25:58;;;;;;;6.27;5.90;;;5.90;99.90;;;;;;5070411;28;20221;-64
2023/01/31 08:28:23;;;;;;;5.03;4.83;;;5.90;99.90;;;;;;5066658;28;20202;-64
2023/01/31 08:30:49;;;;;;;7.33;7.03;;;5.90;99.90;;;;;;5063564;28;20178;-62
2023/01/31 08:33:14;;;;;;;12.93;6.50;;;6.00;99.90;;;;;;5052328;28;20536;-62
2023/01/31 08:35:40;;;;;;;7.83;7.13;;;6.00;99.90;;;;;;5051609;28;20193;-64
2023/01/31 08:38:06;;;;;;;7.77;6.30;;;6.10;99.90;;;;;;5063518;28;20660;-63
2023/01/31 08:40:31;;;;;;;6.43;6.00;;;6.10;99.90;;;;;;5063232;28;20187;-65
2023/01/31 08:42:59;;;;;;;4.93;4.73;;;6.10;99.90;;;;;;5055481;28;20266;-64
2023/01/31 08:45:26;;;;;;;9.53;5.87;;;6.20;99.90;;;;;;5050924;28;20186;-64
2023/01/31 08:47:59;;;;;;;7.03;6.33;;;6.10;99.90;;;;;;5051241;28;20192;-64
2023/01/31 08:50:26;;;;;;;6.10;5.70;;;6.10;99.90;;;;;;5052000;28;20232;-64
2023/01/31 08:52:57;;;;;;;6.30;5.90;;;6.10;99.90;;;;;;5052209;28;20191;-64
2023/01/31 08:55:23;;;;;;;7.20;6.50;;;6.10;99.90;;;;;;5052012;28;20679;-64
2023/01/31 08:57:50;;;;;;;8.47;6.70;;;6.20;99.90;;;;;;5050808;28;20240;-64
2023/01/31 09:00:16;;;;;;;9.33;8.00;;;6.30;99.90;;;;;;5054107;28;20191;-64
2023/01/31 09:02:42;;;;;;;6.20;5.80;;;6.30;99.90;;;;;;5051713;28;20301;-64
2023/01/31 09:05:08;;;;;;;77.47;74.27;;;6.30;99.90;;;;;;5051944;28;20692;-63
2023/01/31 09:07:34;;;;;;;6.67;6.13;;;6.30;99.90;;;;;;5050008;28;20698;-64
2023/01/31 09:10:00;;;;;;;6.87;6.53;;;6.30;99.90;;;;;;5051326;28;20182;-64
2023/01/31 09:12:26;;;;;;;7.93;7.33;;;6.30;99.90;;;;;;5051736;28;20533;-64
2023/01/31 09:14:51;;;;;;;8.10;6.20;;;6.30;99.90;;;;;;5051524;28;20722;-63
2023/01/31 09:17:17;;;;;;;6.67;6.17;;;6.20;99.90;;;;;;5050203;28;20559;-64
2023/01/31 09:19:43;;;;;;;6.63;6.23;;;6.20;99.90;;;;;;5051058;28;20228;-64
2023/01/31 09:22:09;;;;;;;10.33;5.77;;;6.00;99.90;;;;;;5051492;28;20285;-64
2023/01/31 09:24:35;;;;;;;9.10;6.20;;;6.00;99.90;;;;;;5051456;28;20568;-64
2023/01/31 09:27:01;;;;;;;5.80;5.50;;;6.00;99.90;;;;;;5051500;28;20234;-64
2023/01/31 09:29:27;;;;;;;6.23;5.77;;;6.00;99.90;;;;;;5051212;28;20265;-64
2023/01/31 09:31:53;;;;;;;7.93;6.27;;;6.00;99.90;;;;;;5051351;28;20175;-64
2023/01/31 09:34:20;;;;;;;6.07;5.77;;;6.00;99.90;;;;;;5051502;28;20412;-64
2023/01/31 09:36:46;;;;;;;12.30;6.50;;;6.00;99.90;;;;;;5050896;28;20202;-64
2023/01/31 09:39:12;;;;;;;6.47;6.10;;;6.00;99.90;;;;;;5049594;28;20171;-65
2023/01/31 09:41:50;;;;;;;7.50;7.03;;;6.00;99.90;;;;;;5051060;28;20209;-65
2023/01/31 09:44:22;;;;;;;6.50;6.00;;;5.90;99.90;;;;;;5051326;28;20257;-64
2023/01/31 09:47:18;;;;;;;7.33;6.93;;;6.00;99.90;;;;;;5051860;28;20198;-65
2023/01/31 09:49:50;;;;;;;87.27;82.73;;;6.00;99.90;;;;;;5054855;28;20178;-64
2023/01/31 09:52:16;;;;;;;15.97;8.33;;;6.00;99.90;;;;;;5054319;28;20611;-64
2023/01/31 09:54:41;;;;;;;9.30;8.40;;;6.00;99.90;;;;;;5055486;28;20166;-64
2023/01/31 09:57:07;;;;;;;6.87;6.27;;;6.00;99.90;;;;;;5054822;28;20260;-63
2023/01/31 09:59:35;;;;;;;6.50;6.20;;;6.10;99.90;;;;;;5055179;28;20159;-64
2023/01/31 10:02:23;;;;;;;10.73;7.73;;;6.20;99.90;;;;;;5054117;28;20198;-63
2023/01/31 10:05:19;;;;;;;12.67;7.10;;;6.30;99.90;;;;;;5055621;28;20163;-64
2023/01/31 10:07:58;;;;;;;8.30;5.80;;;6.40;99.90;;;;;;5055509;28;20199;-64
2023/01/31 10:10:41;;;;;;;8.23;6.40;;;6.50;99.90;;;;;;5053494;28;20236;-64
2023/01/31 10:13:38;;;;;;;5.90;5.50;;;6.60;99.90;;;;;;5055204;28;20175;-64
2023/01/31 10:16:18;;;;;;;6.53;6.03;;;6.70;99.90;;;;;;5056567;28;20222;-64
2023/01/31 10:18:49;;;;;;;8.53;6.67;;;6.80;99.90;;;;;;5062830;28;20210;-64
2023/01/31 10:21:19;;;;;;;6.97;6.57;;;6.90;99.90;;;;;;5054590;28;20241;-64
2023/01/31 10:23:48;;;;;;;8.73;8.10;;;6.90;99.90;;;;;;5055306;28;20175;-64
2023/01/31 10:26:19;;;;;;;9.67;9.03;;;7.00;99.90;;;;;;5054990;28;20179;-64
2023/01/31 10:28:56;;;;;;;7.93;7.03;;;7.10;99.90;;;;;;5054628;28;20171;-63
2023/01/31 10:31:32;;;;;;;11.77;6.73;;;7.20;99.90;;;;;;5071629;28;20182;-64
2023/01/31 10:34:06;;;;;;;8.30;7.53;;;7.30;99.90;;;;;;5074965;28;20239;-64
2023/01/31 10:37:00;;;;;;;6.93;6.30;;;7.30;99.90;;;;;;5054565;28;20298;-64
2023/01/31 10:39:31;;;;;;;7.47;6.80;;;7.40;99.90;;;;;;5057693;28;20554;-64
2023/01/31 10:42:25;;;;;;;6.93;6.33;;;7.40;99.90;;;;;;5057662;28;20202;-65
2023/01/31 10:44:52;;;;;;;12.33;7.50;;;7.50;99.90;;;;;;5067629;28;20182;-64
2023/01/31 10:47:19;;;;;;;6.70;6.07;;;7.50;99.90;;;;;;5074574;28;20190;-63
2023/01/31 10:49:49;;;;;;;14.63;7.23;;;7.50;99.90;;;;;;5061638;28;20624;-63
2023/01/31 10:52:27;;;;;;;12.47;11.77;;;7.50;99.90;;;;;;5086413;28;20195;-64
2023/01/31 10:55:14;;;;;;;7.30;6.80;;;7.50;99.90;;;;;;5066815;28;20192;-64
2023/01/31 10:57:40;;;;;;;12.53;7.63;;;7.40;99.90;;;;;;5073523;28;20205;-64
2023/01/31 11:00:11;;;;;;;9.67;6.97;;;7.50;99.90;;;;;;5059812;28;20244;-64
2023/01/31 11:02:38;;;;;;;7.57;6.63;;;7.50;99.90;;;;;;5054082;28;20163;-64
2023/01/31 11:05:04;;;;;;;8.37;7.77;;;7.60;99.90;;;;;;5066977;28;20629;-64
2023/01/31 11:07:30;;;;;;;8.57;8.07;;;7.70;99.90;;;;;;5069255;28;20490;-64
2023/01/31 11:09:57;;;;;;;6.67;6.10;;;7.90;99.90;;;;;;5053585;28;20175;-64
2023/01/31 11:12:51;;;;;;;8.33;7.53;;;8.00;99.90;;;;;;5056936;28;20174;-64
2023/01/31 11:15:19;;;;;;;7.27;6.40;;;8.10;99.90;;;;;;5034078;28;20172;-64
2023/01/31 11:17:46;;;;;;;11.87;11.20;;;8.10;99.90;;;;;;5044939;28;20202;-65
2023/01/31 11:20:45;;;;;;;8.47;6.63;;;8.00;99.90;;;;;;5073361;28;20162;-64
2023/01/31 11:23:15;;;;;;;7.20;6.47;;;7.90;99.90;;;;;;5061441;28;20289;-64
2023/01/31 11:25:47;;;;;;;6.57;6.00;;;7.90;99.90;;;;;;5054747;28;20244;-63
2023/01/31 11:28:32;;;;;;;6.00;5.60;;;8.00;99.90;;;;;;5061993;28;20198;-64
2023/01/31 11:30:58;;;;;;;6.80;6.30;;;7.80;99.90;;;;;;5073384;28;20527;-64
2023/01/31 11:33:46;;;;;;;6.20;5.80;;;7.70;99.90;;;;;;5064203;28;20190;-64
2023/01/31 11:36:15;;;;;;;7.23;6.87;;;7.80;99.90;;;;;;5062502;28;20240;-64
2023/01/31 11:38:40;;;;;;;15.17;6.03;;;7.80;99.90;;;;;;5072173;28;20239;-63
2023/01/31 11:41:40;;;;;;;11.00;5.97;;;7.80;99.90;;;;;;5064924;28;20190;-64
2023/01/31 11:44:20;;;;;;;6.93;6.33;;;7.80;99.90;;;;;;5041416;28;20196;-64
2023/01/31 11:46:50;;;;;;;7.33;6.80;;;7.80;99.90;;;;;;5065780;28;20228;-62
2023/01/31 11:49:27;;;;;;;6.60;6.10;;;7.90;99.90;;;;;;5073138;28;20185;-64
2023/01/31 11:51:53;;;;;;;6.37;5.97;;;7.90;99.90;;;;;;5059318;28;20214;-63
2023/01/31 11:54:27;;;;;;;6.33;5.93;;;7.90;99.90;;;;;;5053137;28;20197;-63
2023/01/31 11:56:55;;;;;;;10.73;7.03;;;7.90;99.90;;;;;;5065314;28;20684;-62
2023/01/31 11:59:24;;;;;;;6.67;6.17;;;7.80;99.90;;;;;;5072823;28;20170;-61
2023/01/31 12:01:56;;;;;;;6.40;6.00;;;7.80;99.90;;;;;;5064187;28;20187;-63
2023/01/31 12:04:31;;;;;;;6.30;6.00;;;7.80;99.90;;;;;;5052912;28;20167;-63
2023/01/31 12:07:01;;;;;;;6.67;6.17;;;7.70;99.90;;;;;;5052843;28;20186;-63
2023/01/31 12:09:31;;;;;;;15.63;14.97;;;7.60;99.90;;;;;;5051990;28;20194;-63
2023/01/31 12:12:05;;;;;;;6.17;5.87;;;7.60;99.90;;;;;;5052906;28;20178;-63
2023/01/31 12:14:40;;;;;;;8.27;7.67;;;7.50;99.90;;;;;;5052977;28;20193;-63
2023/01/31 12:17:12;;;;;;;8.77;7.97;;;7.50;99.90;;;;;;5064000;28;20619;-63
2023/01/31 12:19:59;;;;;;;7.73;7.00;;;7.60;99.90;;;;;;5072163;28;20670;-63
2023/01/31 12:22:46;;;;;;;8.53;6.30;;;7.60;99.90;;;;;;5058857;28;20184;-62
2023/01/31 12:25:21;;;;;;;6.20;5.77;;;7.60;99.90;;;;;;5051244;28;20171;-63
2023/01/31 12:28:18;;;;;;;7.73;7.17;;;7.60;99.90;;;;;;5068462;28;20563;-63
2023/01/31 12:30:44;;;;;;;9.50;6.00;;;7.60;99.90;;;;;;5071960;28;20205;-62
2023/01/31 12:33:34;;;;;;;6.60;6.03;;;7.60;99.90;;;;;;5053640;28;20617;-63
2023/01/31 12:36:08;;;;;;;7.00;6.40;;;7.60;99.90;;;;;;5052532;28;20198;-63
2023/01/31 12:38:39;;;;;;;7.33;6.93;;;7.60;99.90;;;;;;5071771;28;20198;-62
2023/01/31 12:41:16;;;;;;;7.83;5.40;;;7.60;99.90;;;;;;5071400;28;20257;-63
2023/01/31 12:43:57;;;;;;;7.90;6.57;;;7.70;99.90;;;;;;5052202;28;20636;-64
2023/01/31 12:46:48;;;;;;;7.23;6.73;;;7.80;99.90;;;;;;5054304;28;20182;-63
2023/01/31 12:49:28;;;;;;;6.30;5.93;;;7.90;99.90;;;;;;5072007;28;20171;-64
2023/01/31 12:52:01;;;;;;;6.57;6.07;;;7.80;99.90;;;;;;5065624;28;20714;-64
2023/01/31 12:54:39;;;;;;;7.13;6.73;;;7.70;99.90;;;;;;5052126;28;20225;-63
2023/01/31 12:57:23;;;;;;;6.73;6.23;;;7.60;99.90;;;;;;5058728;28;20628;-63
2023/01/31 13:00:11;;;;;;;8.30;7.70;;;7.60;99.90;;;;;;5063477;28;20272;-63
2023/01/31 13:03:08;;;;;;;7.63;7.07;;;7.50;99.90;;;;;;5051693;28;20672;-63
2023/01/31 13:05:41;;;;;;;8.27;7.83;;;7.60;99.90;;;;;;5065031;28;20174;-63
2023/01/31 13:08:16;;;;;;;7.10;6.70;;;7.50;99.90;;;;;;5061458;28;20202;-63
2023/01/31 13:10:50;;;;;;;7.40;6.87;;;7.50;99.90;;;;;;5051198;28;20624;-63
2023/01/31 13:13:23;;;;;;;8.60;7.83;;;7.50;99.90;;;;;;5062086;28;20185;-63
2023/01/31 13:15:55;;;;;;;9.70;9.00;;;7.50;99.90;;;;;;5071447;28;20202;-62
2023/01/31 13:18:23;;;;;;;7.93;7.03;;;7.50;99.90;;;;;;5060722;28;20203;-63
2023/01/31 13:20:56;;;;;;;7.23;6.90;;;7.50;99.90;;;;;;5054328;28;20193;-63
2023/01/31 13:23:30;;;;;;;8.17;7.60;;;7.50;99.90;;;;;;5051708;28;20649;-63